createdAt,value
2019-03-03T00:02:21.756Z,98254.57
2019-03-03T00:04:51.899Z,98263.19
2019-03-03T00:07:22.097Z,98255.63
2019-03-03T00:09:52.657Z,98258.33
2019-03-03T00:12:24.002Z,98257.51
2019-03-03T00:19:39.033Z,98243.72
2019-03-03T00:22:09.307Z,98245.88
2019-03-03T00:24:39.596Z,98234.56
2019-03-03T00:27:10.031Z,98219.47
2019-03-03T00:29:40.287Z,98221.91
2019-03-03T00:32:10.432Z,98215.96
2019-03-03T00:34:40.596Z,98203.30
2019-03-03T00:37:17.366Z,98213.03
2019-03-03T00:40:10.653Z,98213.06
2019-03-03T00:42:49.907Z,98212.80
2019-03-03T00:45:45.233Z,98218.18
2019-03-03T00:48:43.747Z,98221.39
2019-03-03T00:51:36.252Z,98214.09
2019-03-03T00:54:27.461Z,98218.12
2019-03-03T00:57:06.522Z,98217.06
2019-03-03T00:59:54.632Z,98217.05
2019-03-03T01:02:53.217Z,98207.61
2019-03-03T01:05:42.988Z,98214.08
2019-03-03T01:08:41.488Z,98210.31
2019-03-03T01:11:19.052Z,98211.66
2019-03-03T01:14:20.443Z,98201.13
2019-03-03T01:17:11.109Z,98199.23
2019-03-03T01:20:12.487Z,98194.66
2019-03-03T01:23:00.590Z,98193.63
2019-03-03T01:25:31.109Z,98198.22
2019-03-03T01:28:01.319Z,98196.85
2019-03-03T01:30:31.559Z,98196.31
2019-03-03T01:33:01.779Z,98201.43
2019-03-03T01:35:32.168Z,98205.47
2019-03-03T01:38:02.761Z,98202.48
2019-03-03T01:40:33.114Z,98217.31
2019-03-03T01:43:03.302Z,98219.77
2019-03-03T01:45:33.658Z,98219.77
2019-03-03T01:48:04.228Z,98223.02
2019-03-03T01:50:34.757Z,98217.11
2019-03-03T01:53:05.164Z,98218.73
2019-03-03T01:55:35.538Z,98224.12
2019-03-03T01:58:05.682Z,98215.78
2019-03-03T02:00:35.838Z,98220.90
2019-03-03T02:03:07.027Z,98221.23
2019-03-03T02:05:37.453Z,98219.33
2019-03-03T02:08:08.085Z,98217.71
2019-03-03T02:10:38.484Z,98216.64
2019-03-03T02:13:08.804Z,98206.40
2019-03-03T02:15:39.074Z,98210.95
2019-03-03T02:18:09.270Z,98209.08
2019-03-03T02:20:39.439Z,98200.45
2019-03-03T02:23:10.849Z,98209.06
2019-03-03T02:25:41.602Z,98200.16
2019-03-03T02:28:12.034Z,98190.71
2019-03-03T02:30:42.193Z,98192.59
2019-03-03T02:33:13.012Z,98185.59
2019-03-03T02:35:43.369Z,98164.59
2019-03-03T02:38:13.817Z,98166.19
2019-03-03T02:40:44.303Z,98159.45
2019-03-03T02:43:14.478Z,98159.22
2019-03-03T02:45:45.986Z,98160.57
2019-03-03T02:48:17.273Z,98154.61
2019-03-03T02:50:47.743Z,98149.52
2019-03-03T02:53:17.968Z,98151.97
2019-03-03T02:55:48.215Z,98155.72
2019-03-03T02:58:18.317Z,98148.73
2019-03-03T03:01:04.445Z,98151.19
2019-03-03T03:03:34.804Z,98146.38
2019-03-03T03:06:16.081Z,98139.95
2019-03-03T03:09:04.036Z,98129.95
2019-03-03T03:11:58.313Z,98128.67
2019-03-03T03:14:42.025Z,98121.44
2019-03-03T03:17:31.259Z,98112.87
2019-03-03T03:20:08.995Z,98108.95
2019-03-03T03:22:58.095Z,98101.28
2019-03-03T03:25:43.396Z,98100.78
2019-03-03T03:28:19.230Z,98099.16
2019-03-03T03:31:02.624Z,98104.10
2019-03-03T03:33:57.021Z,98105.74
2019-03-03T03:39:28.626Z,98111.20
2019-03-03T03:42:16.827Z,98106.93
2019-03-03T03:45:14.806Z,98113.66
2019-03-03T03:48:10.331Z,98108.52
2019-03-03T03:50:51.911Z,98116.05
2019-03-03T03:53:52.143Z,98107.75
2019-03-03T03:56:33.926Z,98105.01
2019-03-03T03:59:19.831Z,98109.27
2019-03-03T04:02:08.119Z,98103.29
2019-03-03T04:05:09.625Z,98107.59
2019-03-03T04:07:48.545Z,98100.79
2019-03-03T04:10:32.330Z,98090.52
2019-03-03T04:13:36.649Z,98083.72
2019-03-03T04:16:18.726Z,98077.50
2019-03-03T04:18:59.557Z,98064.06
2019-03-03T04:21:46.925Z,98069.50
2019-03-03T04:24:39.304Z,98071.13
2019-03-03T04:27:24.833Z,98079.80
2019-03-03T04:30:23.564Z,98076.08
2019-03-03T04:33:22.948Z,98076.44
2019-03-03T04:36:14.850Z,98079.70
2019-03-03T04:39:08.967Z,98076.01
2019-03-03T04:41:47.935Z,98068.54
2019-03-03T04:44:35.693Z,98074.16
2019-03-03T04:47:15.258Z,98076.84
2019-03-03T04:50:13.670Z,98076.85
2019-03-03T04:53:02.764Z,98070.72
2019-03-03T04:55:50.867Z,98076.67
2019-03-03T04:58:51.968Z,98071.06
2019-03-03T05:01:41.229Z,98072.95
2019-03-03T05:04:20.271Z,98074.05
2019-03-03T05:07:15.451Z,98072.75
2019-03-03T05:09:51.632Z,98070.06
2019-03-03T05:12:40.670Z,98065.53
2019-03-03T05:15:37.193Z,98061.51
2019-03-03T05:18:26.399Z,98062.85
2019-03-03T05:20:56.668Z,98074.40
2019-03-03T05:23:26.974Z,98072.27
2019-03-03T05:25:57.147Z,98060.73
2019-03-03T05:28:27.529Z,98066.09
2019-03-03T05:30:57.627Z,98057.22
2019-03-03T05:33:27.849Z,98059.89
2019-03-03T05:35:58.042Z,98065.52
2019-03-03T05:38:28.300Z,98063.91
2019-03-03T05:40:58.433Z,98068.73
2019-03-03T05:43:28.643Z,98059.34
2019-03-03T05:45:58.788Z,98063.63
2019-03-03T05:48:29.119Z,98057.17
2019-03-03T05:50:59.304Z,98068.15
2019-03-03T05:53:29.459Z,98054.98
2019-03-03T05:55:59.801Z,98054.98
2019-03-03T05:58:29.995Z,98067.81
2019-03-03T06:01:00.107Z,98067.53
2019-03-03T06:03:30.305Z,98065.37
2019-03-03T06:06:00.455Z,98065.33
2019-03-03T06:08:30.599Z,98060.72
2019-03-03T06:11:00.786Z,98063.95
2019-03-03T06:13:31.089Z,98064.96
2019-03-03T06:16:01.210Z,98070.31
2019-03-03T06:18:31.328Z,98065.43
2019-03-03T06:21:01.496Z,98070.24
2019-03-03T06:23:31.613Z,98066.20
2019-03-03T06:26:02.187Z,98062.73
2019-03-03T06:28:32.293Z,98066.25
2019-03-03T06:31:02.452Z,98068.11
2019-03-03T06:33:32.673Z,98062.25
2019-03-03T06:36:02.963Z,98067.08
2019-03-03T06:38:34.178Z,98070.31
2019-03-03T06:41:04.474Z,98064.96
2019-03-03T06:43:34.649Z,98063.91
2019-03-03T06:46:05.077Z,98069.84
2019-03-03T06:48:35.388Z,98061.28
2019-03-03T06:51:05.609Z,98065.56
2019-03-03T06:53:35.938Z,98055.97
2019-03-03T06:56:07.248Z,98042.86
2019-03-03T06:58:37.385Z,98038.36
2019-03-03T07:01:07.540Z,98023.89
2019-03-03T07:03:37.733Z,98029.28
2019-03-03T07:06:07.949Z,98032.52
2019-03-03T07:08:38.139Z,98025.83
2019-03-03T07:11:10.046Z,98023.69
2019-03-03T07:13:40.325Z,98023.69
2019-03-03T07:16:10.724Z,98019.64
2019-03-03T07:18:46.755Z,98022.35
2019-03-03T07:21:17.093Z,98014.84
2019-03-03T07:23:47.339Z,98007.52
2019-03-03T07:26:17.686Z,98012.79
2019-03-03T07:28:47.989Z,98014.28
2019-03-03T07:31:18.429Z,98022.45
2019-03-03T07:33:53.636Z,98013.90
2019-03-03T07:36:23.837Z,98018.11
2019-03-03T07:38:54.832Z,98020.97
2019-03-03T07:41:25.215Z,98032.64
2019-03-03T07:43:55.400Z,98025.48
2019-03-03T07:46:25.746Z,98026.16
2019-03-03T07:48:56.007Z,98036.89
2019-03-03T07:51:26.233Z,98031.34
2019-03-03T07:53:56.428Z,98036.03
2019-03-03T07:56:26.774Z,98038.78
2019-03-03T07:58:57.129Z,98042.13
2019-03-03T08:01:27.252Z,98045.45
2019-03-03T08:03:57.738Z,98047.91
2019-03-03T08:06:28.350Z,98042.16
2019-03-03T08:08:58.701Z,98034.86
2019-03-03T08:11:28.970Z,98033.81
2019-03-03T08:13:59.284Z,98040.07
2019-03-03T08:16:30.070Z,98045.98
2019-03-03T08:19:01.417Z,98045.43
2019-03-03T08:21:32.152Z,98050.19
2019-03-03T08:24:02.438Z,98053.86
2019-03-03T08:26:32.943Z,98051.48
2019-03-03T08:29:03.267Z,98062.86
2019-03-03T08:31:33.753Z,98049.30
2019-03-03T08:34:04.309Z,98053.42
2019-03-03T08:36:34.600Z,98050.29
2019-03-03T08:39:06.633Z,98055.49
2019-03-03T08:41:40.594Z,98054.32
2019-03-03T08:44:17.982Z,98052.74
2019-03-03T08:47:13.086Z,98038.95
2019-03-03T08:50:00.543Z,98044.73
2019-03-03T08:52:43.191Z,98054.81
2019-03-03T08:55:38.349Z,98055.62
2019-03-03T08:58:13.493Z,98057.23
2019-03-03T09:01:03.872Z,98058.51
2019-03-03T09:03:50.986Z,98059.17
2019-03-03T09:06:38.799Z,98058.09
2019-03-03T09:09:27.939Z,98055.42
2019-03-03T09:12:02.546Z,98048.56
2019-03-03T09:14:47.725Z,98050.03
2019-03-03T09:17:52.041Z,98037.22
2019-03-03T09:20:41.235Z,98039.64
2019-03-03T09:23:29.252Z,98043.77
2019-03-03T09:26:28.822Z,98050.10
2019-03-03T09:29:05.979Z,98044.91
2019-03-03T09:31:53.739Z,98045.92
2019-03-03T09:34:48.948Z,98050.69
2019-03-03T09:37:31.903Z,98048.80
2019-03-03T09:40:19.705Z,98063.98
2019-03-03T09:43:21.384Z,98055.95
2019-03-03T09:46:09.602Z,98051.92
2019-03-03T09:48:58.927Z,98066.13
2019-03-03T09:51:41.386Z,98064.52
2019-03-03T09:54:33.735Z,98067.68
2019-03-03T09:57:29.479Z,98055.61
2019-03-03T10:00:13.274Z,98068.48
2019-03-03T10:02:49.706Z,98069.52
2019-03-03T10:05:37.699Z,98070.05
2019-03-03T10:08:21.055Z,98069.84
2019-03-03T10:11:05.765Z,98071.36
2019-03-03T10:13:50.724Z,98068.27
2019-03-03T10:16:31.894Z,98050.84
2019-03-03T10:19:19.329Z,98050.84
2019-03-03T10:22:01.539Z,98045.89
2019-03-03T10:24:40.220Z,98050.25
2019-03-03T10:27:35.127Z,98045.00
2019-03-03T10:30:29.947Z,98053.77
2019-03-03T10:33:22.426Z,98042.42
2019-03-03T10:36:00.931Z,98032.43
2019-03-03T10:38:48.869Z,98032.94
2019-03-03T10:41:41.291Z,98039.20
2019-03-03T10:44:30.544Z,98056.94
2019-03-03T10:47:32.385Z,98041.82
2019-03-03T10:50:21.732Z,98044.42
2019-03-03T10:53:03.327Z,98044.04
2019-03-03T10:55:58.526Z,98057.88
2019-03-03T10:58:39.496Z,98066.11
2019-03-03T11:01:17.987Z,98048.86
2019-03-03T11:04:10.280Z,98043.08
2019-03-03T11:07:02.811Z,98049.54
2019-03-03T11:09:58.109Z,98043.02
2019-03-03T11:12:46.812Z,98035.73
2019-03-03T11:15:35.132Z,98039.53
2019-03-03T11:18:28.927Z,98037.31
2019-03-03T11:21:30.712Z,98028.42
2019-03-03T11:24:07.847Z,98030.48
2019-03-03T11:27:03.396Z,98025.66
2019-03-03T11:30:04.810Z,98029.23
2019-03-03T11:32:45.345Z,98021.04
2019-03-03T11:35:42.544Z,98026.59
2019-03-03T11:38:44.241Z,98017.97
2019-03-03T11:41:36.366Z,98015.83
2019-03-03T11:44:44.740Z,98011.33
2019-03-03T11:47:26.431Z,98008.06
2019-03-03T11:50:13.424Z,97980.38
2019-03-03T11:52:56.281Z,97985.89
2019-03-03T11:55:44.456Z,97991.20
2019-03-03T11:58:37.294Z,97968.00
2019-03-03T12:01:36.054Z,97962.88
2019-03-03T12:04:24.175Z,97960.59
2019-03-03T12:07:13.515Z,97941.38
2019-03-03T12:10:05.940Z,97945.72
2019-03-03T12:12:55.802Z,97939.84
2019-03-03T12:15:34.895Z,97942.40
2019-03-03T12:18:20.765Z,97941.55
2019-03-03T12:21:06.263Z,97946.83
2019-03-03T12:24:02.199Z,97926.27
2019-03-03T12:26:51.563Z,97932.92
2019-03-03T12:29:37.437Z,97926.92
2019-03-03T12:32:18.911Z,97925.66
2019-03-03T12:35:14.170Z,97916.52
2019-03-03T12:38:09.327Z,97917.62
2019-03-03T12:40:56.227Z,97909.73
2019-03-03T12:43:33.276Z,97912.66
2019-03-03T12:46:37.667Z,97906.96
2019-03-03T12:49:42.389Z,97900.66
2019-03-03T12:52:26.188Z,97889.44
2019-03-03T12:55:14.399Z,97879.63
2019-03-03T12:58:06.439Z,97860.16
2019-03-03T13:00:50.607Z,97867.89
2019-03-03T13:03:38.731Z,97851.20
2019-03-03T13:06:37.072Z,97847.84
2019-03-03T13:09:13.360Z,97850.56
2019-03-03T13:11:59.908Z,97848.58
2019-03-03T13:14:36.518Z,97844.00
2019-03-03T13:17:22.120Z,97842.98
2019-03-03T13:20:15.716Z,97830.94
2019-03-03T13:22:57.366Z,97827.15
2019-03-03T13:25:46.681Z,97810.69
2019-03-03T13:28:35.052Z,97828.85
2019-03-03T13:31:20.622Z,97823.17
2019-03-03T13:34:16.508Z,97821.78
2019-03-03T13:37:04.952Z,97816.44
2019-03-03T13:39:45.875Z,97809.09
2019-03-03T13:42:41.775Z,97811.19
2019-03-03T13:45:13.475Z,97810.00
2019-03-03T13:47:44.330Z,97803.38
2019-03-03T13:50:16.263Z,97806.83
2019-03-03T13:52:46.554Z,97798.72
2019-03-03T13:55:17.158Z,97800.63
2019-03-03T13:57:47.882Z,97788.64
2019-03-03T14:00:20.822Z,97792.44
2019-03-03T14:02:51.646Z,97776.12
2019-03-03T14:05:24.434Z,97782.22
2019-03-03T14:07:54.688Z,97777.64
2019-03-03T14:10:25.487Z,97764.13
2019-03-03T14:12:56.115Z,97762.02
2019-03-03T14:15:26.821Z,97763.22
2019-03-03T14:17:58.174Z,97768.34
2019-03-03T14:20:28.900Z,97755.41
2019-03-03T14:22:59.352Z,97763.05
2019-03-03T14:25:29.682Z,97755.41
2019-03-03T14:27:59.981Z,97754.77
2019-03-03T14:30:30.331Z,97751.84
2019-03-03T14:33:01.819Z,97753.62
2019-03-03T14:35:32.625Z,97737.87
2019-03-03T14:48:20.276Z,97725.60
2019-03-03T14:50:51.068Z,97705.59
2019-03-03T14:53:21.626Z,97696.73
2019-03-03T14:55:52.562Z,97685.09
2019-03-03T14:58:23.321Z,97688.20
2019-03-03T15:00:54.245Z,97682.61
2019-03-03T15:03:24.920Z,97672.94
2019-03-03T15:05:55.254Z,97677.34
2019-03-03T15:08:26.103Z,97675.66
2019-03-03T15:10:56.649Z,97688.52
2019-03-03T15:13:27.363Z,97680.34
2019-03-03T15:15:57.887Z,97681.56
2019-03-03T15:18:28.323Z,97673.54
2019-03-03T15:20:59.168Z,97679.10
2019-03-03T15:23:30.110Z,97689.48
2019-03-03T15:26:00.645Z,97686.02
2019-03-03T15:28:31.542Z,97678.73
2019-03-03T15:31:02.322Z,97678.00
2019-03-03T15:33:33.105Z,97673.59
2019-03-03T15:36:04.122Z,97661.20
2019-03-03T15:38:34.406Z,97661.37
2019-03-03T15:41:04.791Z,97661.20
2019-03-03T15:43:36.889Z,97651.35
2019-03-03T15:46:07.539Z,97638.45
2019-03-03T15:48:38.288Z,97642.24
2019-03-03T15:51:09.226Z,97645.20
2019-03-03T15:53:39.447Z,97658.28
2019-03-03T15:56:09.886Z,97645.98
2019-03-03T15:58:40.498Z,97649.20
2019-03-03T16:01:17.799Z,97653.95
2019-03-03T16:03:48.075Z,97649.58
2019-03-03T16:06:20.185Z,97645.14
2019-03-03T16:08:50.718Z,97646.53
2019-03-03T16:11:21.246Z,97637.42
2019-03-03T16:13:51.794Z,97633.27
2019-03-03T16:16:22.118Z,97635.88
2019-03-03T16:18:52.337Z,97630.70
2019-03-03T16:21:22.991Z,97631.70
2019-03-03T16:23:53.592Z,97629.59
2019-03-03T16:26:24.215Z,97620.78
2019-03-03T16:28:55.760Z,97619.43
2019-03-03T16:31:26.243Z,97617.05
2019-03-03T16:33:56.868Z,97616.35
2019-03-03T16:36:28.311Z,97611.62
2019-03-03T16:38:58.580Z,97611.56
2019-03-03T16:41:29.015Z,97594.48
2019-03-03T16:43:59.447Z,97591.00
2019-03-03T16:46:29.940Z,97587.31
2019-03-03T16:49:00.474Z,97569.47
2019-03-03T16:51:30.822Z,97573.28
2019-03-03T16:54:01.136Z,97570.45
2019-03-03T16:56:31.891Z,97564.97
2019-03-03T16:59:02.283Z,97560.98
2019-03-03T17:01:32.712Z,97553.48
2019-03-03T17:04:03.117Z,97558.02
2019-03-03T17:06:33.635Z,97546.63
2019-03-03T17:09:06.627Z,97543.19
2019-03-03T17:11:38.942Z,97539.95
2019-03-03T17:14:09.172Z,97554.64
2019-03-03T17:16:39.597Z,97550.88
2019-03-03T17:19:09.882Z,97550.66
2019-03-03T17:21:40.253Z,97543.81
2019-03-03T17:24:10.854Z,97543.81
2019-03-03T17:26:41.347Z,97538.38
2019-03-03T17:29:11.637Z,97537.60
2019-03-03T17:31:42.245Z,97527.72
2019-03-03T17:34:13.413Z,97531.86
2019-03-03T17:36:43.846Z,97534.43
2019-03-03T17:39:14.279Z,97533.70
2019-03-03T17:41:44.705Z,97541.98
2019-03-03T17:44:15.173Z,97541.98
2019-03-03T17:46:45.712Z,97540.94
2019-03-03T17:49:16.119Z,97541.00
2019-03-03T17:51:46.770Z,97547.30
2019-03-03T17:54:17.436Z,97550.88
2019-03-03T17:56:47.744Z,97552.78
2019-03-03T17:59:19.702Z,97564.88
2019-03-03T18:01:50.038Z,97561.19
2019-03-03T18:04:20.392Z,97567.41
2019-03-03T18:06:50.992Z,97576.66
2019-03-03T18:09:22.268Z,97569.89
2019-03-03T18:11:52.819Z,97563.27
2019-03-03T18:14:23.035Z,97562.55
2019-03-03T18:16:53.493Z,97560.16
2019-03-03T18:19:24.022Z,97560.41
2019-03-03T18:21:54.476Z,97558.06
2019-03-03T18:24:24.903Z,97546.52
2019-03-03T18:26:55.781Z,97543.88
2019-03-03T18:29:27.996Z,97543.80
2019-03-03T18:31:58.721Z,97532.34
2019-03-03T18:34:29.252Z,97517.86
2019-03-03T18:36:59.649Z,97516.97
2019-03-03T18:39:30.211Z,97518.64
2019-03-03T18:42:00.697Z,97511.88
2019-03-03T18:44:31.258Z,97511.59
2019-03-03T18:47:02.046Z,97507.70
2019-03-03T18:49:32.441Z,97501.30
2019-03-03T18:52:03.530Z,97498.37
2019-03-03T18:54:34.117Z,97500.59
2019-03-03T18:57:04.622Z,97502.01
2019-03-03T18:59:35.037Z,97502.33
2019-03-03T19:02:05.518Z,97502.55
2019-03-03T19:04:36.070Z,97499.75
2019-03-03T19:07:06.628Z,97502.36
2019-03-03T19:09:37.127Z,97503.23
2019-03-03T19:12:07.439Z,97513.30
2019-03-03T19:14:38.226Z,97519.31
2019-03-03T19:17:08.590Z,97507.78
2019-03-03T19:19:39.196Z,97505.47
2019-03-03T19:22:09.828Z,97513.12
2019-03-03T19:24:40.767Z,97508.98
2019-03-03T19:27:11.479Z,97508.98
2019-03-03T19:29:42.132Z,97504.92
2019-03-03T19:32:12.882Z,97500.16
2019-03-03T19:34:43.690Z,97501.80
2019-03-03T19:37:14.181Z,97497.84
2019-03-03T19:39:44.718Z,97492.73
2019-03-03T19:42:15.553Z,97488.73
2019-03-03T19:44:46.510Z,97484.33
2019-03-03T19:47:17.153Z,97486.81
2019-03-03T19:49:47.768Z,97480.99
2019-03-03T19:52:18.242Z,97477.32
2019-03-03T19:54:48.798Z,97474.00
2019-03-03T19:57:19.282Z,97469.27
2019-03-03T19:59:50.361Z,97459.81
2019-03-03T20:02:21.038Z,97454.73
2019-03-03T20:04:51.861Z,97441.61
2019-03-03T20:07:22.298Z,97428.17
2019-03-03T20:09:53.635Z,97426.98
2019-03-03T20:12:24.403Z,97431.45
2019-03-03T20:14:55.174Z,97425.56
2019-03-03T20:17:25.751Z,97425.28
2019-03-03T20:19:56.265Z,97424.70
2019-03-03T20:22:26.962Z,97414.53
2019-03-03T20:24:57.426Z,97418.33
2019-03-03T20:27:28.553Z,97421.47
2019-03-03T20:29:59.041Z,97426.52
2019-03-03T20:32:30.009Z,97423.23
2019-03-03T20:35:00.894Z,97425.95
2019-03-03T20:37:31.950Z,97418.34
2019-03-03T20:40:03.270Z,97415.31
2019-03-03T20:42:34.073Z,97417.64
2019-03-03T20:45:05.810Z,97411.98
2019-03-03T20:47:36.646Z,97411.00
2019-03-03T20:50:10.279Z,97402.16
2019-03-03T20:52:41.516Z,97401.94
2019-03-03T20:55:13.650Z,97390.97
2019-03-03T20:57:45.384Z,97381.96
2019-03-03T21:00:22.213Z,97377.66
2019-03-03T21:02:53.064Z,97368.81
2019-03-03T21:05:24.030Z,97368.81
2019-03-03T21:07:54.800Z,97357.31
2019-03-03T21:10:25.860Z,97360.49
2019-03-03T21:12:56.460Z,97354.78
2019-03-03T21:15:27.022Z,97357.62
2019-03-03T21:17:57.907Z,97362.63
2019-03-03T21:20:28.626Z,97349.80
2019-03-03T21:22:59.360Z,97340.30
2019-03-03T21:25:30.387Z,97336.95
2019-03-03T21:28:00.778Z,97332.95
2019-03-03T21:30:33.109Z,97334.72
2019-03-03T21:33:03.741Z,97339.63
2019-03-03T21:35:34.323Z,97328.72
2019-03-03T21:38:04.908Z,97326.23
2019-03-03T21:40:35.516Z,97313.23
2019-03-03T21:43:05.864Z,97304.50
2019-03-03T21:45:36.516Z,97301.41
2019-03-03T21:48:07.032Z,97302.13
2019-03-03T21:50:37.439Z,97289.67
2019-03-03T21:53:09.553Z,97294.61
2019-03-03T21:55:39.932Z,97283.70
2019-03-03T21:58:10.414Z,97276.88
2019-03-03T22:00:41.147Z,97279.57
2019-03-03T22:03:11.507Z,97275.17
2019-03-03T22:05:41.977Z,97272.97
2019-03-03T22:08:12.614Z,97270.55
2019-03-03T22:10:42.949Z,97263.32
2019-03-03T22:13:13.856Z,97253.64
2019-03-03T22:15:45.699Z,97260.42
2019-03-03T22:18:16.317Z,97256.92
2019-03-03T22:23:35.135Z,97242.20
2019-03-03T22:26:05.968Z,97240.72
2019-03-03T22:28:36.524Z,97236.84
2019-03-03T22:31:06.771Z,97234.06
2019-03-03T22:33:37.159Z,97228.34
2019-03-03T22:36:07.601Z,97214.30
2019-03-03T22:38:38.439Z,97212.59
2019-03-03T22:41:08.723Z,97201.53
2019-03-03T22:43:39.075Z,97199.27
2019-03-03T22:46:09.872Z,97205.03
2019-03-03T22:48:40.272Z,97199.44
2019-03-03T22:51:10.545Z,97184.95
2019-03-03T22:53:41.012Z,97186.09
2019-03-03T22:56:12.658Z,97173.56
2019-03-03T22:58:42.912Z,97172.80
2019-03-03T23:01:18.154Z,97163.80
2019-03-03T23:04:32.584Z,97151.84
2019-03-03T23:07:14.722Z,97149.08
2019-03-03T23:10:22.903Z,97154.15
2019-03-03T23:13:34.414Z,97142.81
2019-03-03T23:16:54.675Z,97138.93
2019-03-03T23:20:08.409Z,97133.20
2019-03-03T23:23:41.089Z,97127.30
2019-03-03T23:26:16.590Z,97129.66
2019-03-03T23:28:43.262Z,97116.70
2019-03-03T23:31:13.647Z,97112.05
2019-03-03T23:33:43.771Z,97110.03
2019-03-03T23:36:14.220Z,97116.02
2019-03-03T23:38:45.698Z,97106.75
2019-03-03T23:41:16.035Z,97102.53
2019-03-03T23:43:46.497Z,97108.13
2019-03-03T23:46:16.863Z,97108.41
2019-03-03T23:48:47.028Z,97109.03
2019-03-03T23:51:17.346Z,97108.34
2019-03-03T23:53:47.567Z,97103.97
2019-03-03T23:56:17.941Z,97105.70
2019-03-03T23:58:48.273Z,97096.37
